createdAt,value
2022-07-26T00:02:25.405Z,7.30
2022-07-26T00:04:55.257Z,8.80
2022-07-26T00:07:25.023Z,4.93
2022-07-26T00:09:54.788Z,8.03
2022-07-26T00:12:24.576Z,6.72
2022-07-26T00:14:54.511Z,8.80
2022-07-26T00:17:24.367Z,6.07
2022-07-26T00:19:54.148Z,6.13
2022-07-26T00:22:36.043Z,9.68
2022-07-26T00:25:09.542Z,8.30
2022-07-26T00:27:39.349Z,8.90
2022-07-26T00:30:11.483Z,12.10
2022-07-26T00:32:41.259Z,9.07
2022-07-26T00:35:11.172Z,7.73
2022-07-26T00:37:41.474Z,7.70
2022-07-26T00:40:12.720Z,3.52
2022-07-26T00:42:42.351Z,8.45
2022-07-26T00:45:15.257Z,8.68
2022-07-26T00:47:45.175Z,11.57
2022-07-26T00:50:17.494Z,11.83
2022-07-26T00:52:49.720Z,9.05
2022-07-26T00:55:19.737Z,11.15
2022-07-26T00:57:52.090Z,9.85
2022-07-26T01:00:27.072Z,8.68
2022-07-26T01:02:57.402Z,12.40
2022-07-26T01:05:28.090Z,8.43
2022-07-26T01:07:58.484Z,11.63
2022-07-26T01:10:27.969Z,12.20
2022-07-26T01:12:57.752Z,11.73
2022-07-26T01:15:28.373Z,11.88
2022-07-26T01:17:58.164Z,10.77
2022-07-26T01:20:27.887Z,10.00
2022-07-26T01:22:57.677Z,13.47
2022-07-26T01:25:32.584Z,9.57
2022-07-26T01:28:06.889Z,14.70
2022-07-26T01:30:36.963Z,14.55
2022-07-26T01:33:06.612Z,7.20
2022-07-26T01:35:36.744Z,12.13
2022-07-26T01:38:08.095Z,9.37
2022-07-26T01:40:37.873Z,9.40
2022-07-26T01:43:07.832Z,13.50
2022-07-26T01:45:37.701Z,10.07
2022-07-26T01:48:10.079Z,11.83
2022-07-26T01:50:39.862Z,15.60
2022-07-26T01:53:09.645Z,8.37
2022-07-26T01:55:39.417Z,9.13
2022-07-26T01:58:11.051Z,17.10
2022-07-26T02:00:41.163Z,13.43
2022-07-26T02:03:11.480Z,16.87
2022-07-26T02:05:41.386Z,10.90
2022-07-26T02:08:12.570Z,13.24
2022-07-26T02:10:59.817Z,14.07
2022-07-26T02:13:38.909Z,14.23
2022-07-26T02:16:12.483Z,10.90
2022-07-26T02:18:42.915Z,9.30
2022-07-26T02:21:12.702Z,10.37
2022-07-26T02:23:42.783Z,10.98
2022-07-26T02:26:12.560Z,8.45
2022-07-26T02:28:42.760Z,10.88
2022-07-26T02:31:15.305Z,11.60
2022-07-26T02:33:44.084Z,13.63
2022-07-26T02:36:13.581Z,13.07
2022-07-26T02:38:43.657Z,15.50
2022-07-26T02:41:13.435Z,10.97
2022-07-26T02:43:43.204Z,11.03
2022-07-26T02:46:13.477Z,9.60
2022-07-26T02:48:43.316Z,9.50
2022-07-26T02:51:13.189Z,14.20
2022-07-26T02:53:43.069Z,12.67
2022-07-26T02:56:12.540Z,16.63
2022-07-26T02:58:42.329Z,11.93
2022-07-26T03:01:12.393Z,14.30
2022-07-26T03:03:48.636Z,14.53
2022-07-26T03:06:14.556Z,12.95
2022-07-26T03:08:44.372Z,12.10
2022-07-26T03:11:14.445Z,16.65
2022-07-26T03:13:44.292Z,10.53
2022-07-26T03:16:15.042Z,12.65
2022-07-26T03:18:46.026Z,12.73
2022-07-26T03:21:15.569Z,11.45
2022-07-26T03:23:45.339Z,9.53
2022-07-26T03:26:15.515Z,8.28
2022-07-26T03:28:45.291Z,13.97
2022-07-26T03:31:15.329Z,12.37
2022-07-26T03:33:45.178Z,7.90
2022-07-26T03:36:15.668Z,17.90
2022-07-26T03:38:45.698Z,8.20
2022-07-26T03:41:15.472Z,13.87
2022-07-26T03:43:45.294Z,8.37
2022-07-26T03:46:15.024Z,14.33
2022-07-26T03:48:44.945Z,13.20
2022-07-26T03:51:15.055Z,11.22
2022-07-26T03:53:44.855Z,14.03
2022-07-26T03:56:31.135Z,13.23
2022-07-26T03:59:03.313Z,14.17
2022-07-26T04:01:34.910Z,13.20
2022-07-26T04:04:06.878Z,10.03
2022-07-26T04:06:38.516Z,13.50
2022-07-26T04:09:09.125Z,11.30
2022-07-26T04:11:40.138Z,13.03
2022-07-26T04:14:12.597Z,11.73
2022-07-26T04:16:43.855Z,10.93
2022-07-26T04:19:13.933Z,16.03
2022-07-26T04:21:44.025Z,13.58
2022-07-26T04:24:13.856Z,11.85
2022-07-26T04:26:43.595Z,16.53
2022-07-26T04:29:14.709Z,13.83
2022-07-26T04:31:44.493Z,11.60
2022-07-26T04:34:14.265Z,15.00
2022-07-26T04:36:44.084Z,17.33
2022-07-26T04:39:13.874Z,12.87
2022-07-26T04:41:43.644Z,10.03
2022-07-26T04:44:13.424Z,16.60
2022-07-26T04:46:44.936Z,19.47
2022-07-26T04:49:14.748Z,14.20
2022-07-26T04:51:44.518Z,19.00
2022-07-26T04:54:15.622Z,12.23
2022-07-26T04:56:45.690Z,14.25
2022-07-26T04:59:18.520Z,15.35
2022-07-26T05:01:46.860Z,15.00
2022-07-26T05:04:16.664Z,17.40
2022-07-26T05:06:46.236Z,15.80
2022-07-26T05:09:16.035Z,12.03
2022-07-26T05:11:46.103Z,13.45
2022-07-26T05:14:15.883Z,15.42
2022-07-26T05:16:46.097Z,15.27
2022-07-26T05:19:16.333Z,14.87
2022-07-26T05:21:46.177Z,11.90
2022-07-26T05:24:15.969Z,13.15
2022-07-26T05:26:45.747Z,15.77
2022-07-26T05:29:15.329Z,12.45
2022-07-26T05:31:45.115Z,14.80
2022-07-26T05:34:14.885Z,12.70
2022-07-26T05:36:44.674Z,14.40
2022-07-26T05:39:16.166Z,9.57
2022-07-26T05:41:45.987Z,18.23
2022-07-26T05:44:15.834Z,13.83
2022-07-26T05:46:45.631Z,14.80
2022-07-26T05:49:15.543Z,14.27
2022-07-26T05:51:45.393Z,15.40
2022-07-26T05:54:15.646Z,16.73
2022-07-26T05:56:46.919Z,16.27
2022-07-26T05:59:16.682Z,12.00
2022-07-26T06:01:46.473Z,16.70
2022-07-26T06:04:16.224Z,16.43
2022-07-26T06:06:45.977Z,12.10
2022-07-26T06:09:15.818Z,9.67
2022-07-26T06:11:45.871Z,10.43
2022-07-26T06:14:15.536Z,10.23
2022-07-26T06:16:46.155Z,8.63
2022-07-26T06:19:16.271Z,6.70
2022-07-26T06:21:46.159Z,8.73
2022-07-26T06:24:16.140Z,13.32
2022-07-26T06:26:46.598Z,8.97
2022-07-26T06:29:16.664Z,10.15
2022-07-26T06:31:46.603Z,7.87
2022-07-26T06:34:16.500Z,8.27
2022-07-26T06:36:46.641Z,6.55
2022-07-26T06:39:16.122Z,5.05
2022-07-26T06:41:45.900Z,9.10
2022-07-26T06:44:15.661Z,7.08
2022-07-26T06:46:45.445Z,10.17
2022-07-26T06:49:19.439Z,5.97
2022-07-26T06:51:47.161Z,6.70
2022-07-26T06:54:16.933Z,5.42
2022-07-26T06:56:46.725Z,12.37
2022-07-26T06:59:16.490Z,8.07
2022-07-26T07:01:51.343Z,5.73
2022-07-26T07:04:18.041Z,6.03
2022-07-26T07:06:47.828Z,8.03
2022-07-26T07:09:19.151Z,5.15
2022-07-26T07:11:52.307Z,6.60
2022-07-26T07:14:22.769Z,3.80
2022-07-26T07:16:52.689Z,4.17
2022-07-26T07:19:22.146Z,5.65
2022-07-26T07:21:52.461Z,6.28
2022-07-26T07:24:21.931Z,6.80
2022-07-26T07:26:52.078Z,4.73
2022-07-26T07:29:22.143Z,6.83
2022-07-26T07:31:52.016Z,4.03
2022-07-26T07:34:24.198Z,8.33
2022-07-26T07:36:54.436Z,4.07
2022-07-26T07:39:24.284Z,1.97
2022-07-26T07:41:55.500Z,3.55
2022-07-26T07:44:25.263Z,2.20
2022-07-26T07:46:55.149Z,1.90
2022-07-26T07:49:25.018Z,2.27
2022-07-26T07:51:54.608Z,2.55
2022-07-26T07:54:24.372Z,2.95
2022-07-26T07:56:56.321Z,3.70
2022-07-26T07:59:25.850Z,2.55
2022-07-26T08:01:55.617Z,2.40
2022-07-26T08:04:25.480Z,1.85
2022-07-26T08:06:55.702Z,2.05
2022-07-26T08:09:28.982Z,1.50
2022-07-26T08:11:59.070Z,2.27
2022-07-26T08:14:30.185Z,2.67
2022-07-26T08:17:00.203Z,4.33
2022-07-26T08:19:41.716Z,2.37
2022-07-26T08:22:01.563Z,7.90
2022-07-26T08:24:31.404Z,1.37
2022-07-26T08:27:01.172Z,3.40
2022-07-26T08:29:30.988Z,5.93
2022-07-26T08:32:01.407Z,5.97
2022-07-26T08:34:31.293Z,2.80
2022-07-26T08:37:16.610Z,3.27
2022-07-26T08:39:32.597Z,2.50
2022-07-26T08:42:04.357Z,4.93
2022-07-26T08:44:34.874Z,6.13
2022-07-26T08:47:04.956Z,6.90
2022-07-26T08:49:34.594Z,6.20
2022-07-26T08:52:09.067Z,5.28
2022-07-26T08:54:40.504Z,4.30
2022-07-26T08:57:12.053Z,5.27
2022-07-26T08:59:42.087Z,3.67
2022-07-26T09:02:13.889Z,8.33
2022-07-26T09:04:46.316Z,7.93
2022-07-26T09:07:19.351Z,3.90
2022-07-26T09:10:03.005Z,7.17
2022-07-26T09:12:33.814Z,7.20
2022-07-26T09:15:06.208Z,6.00
2022-07-26T09:17:43.998Z,5.20
2022-07-26T09:20:16.851Z,3.56
2022-07-26T09:23:04.077Z,3.03
2022-07-26T09:25:39.384Z,4.17
2022-07-26T09:28:25.651Z,4.50
2022-07-26T09:31:04.450Z,5.47
2022-07-26T09:33:48.571Z,5.07
2022-07-26T09:36:19.387Z,5.67
2022-07-26T09:38:54.509Z,3.67
2022-07-26T09:41:37.544Z,3.57
2022-07-26T09:44:12.830Z,4.10
2022-07-26T09:46:45.973Z,5.23
2022-07-26T09:49:20.991Z,4.43
2022-07-26T09:51:53.743Z,6.50
2022-07-26T09:54:35.159Z,4.03
2022-07-26T09:57:05.068Z,5.33
2022-07-26T09:59:34.828Z,4.63
2022-07-26T10:02:06.602Z,3.02
2022-07-26T10:04:36.812Z,4.17
2022-07-26T10:07:06.595Z,4.33
2022-07-26T10:09:45.193Z,5.87
2022-07-26T10:12:18.077Z,5.85
2022-07-26T10:14:51.028Z,5.20
2022-07-26T10:17:41.732Z,5.87
2022-07-26T10:20:19.563Z,5.20
2022-07-26T10:22:50.493Z,3.23
2022-07-26T10:25:23.473Z,2.90
2022-07-26T10:27:56.093Z,6.37
2022-07-26T10:30:47.184Z,6.30
2022-07-26T10:33:18.713Z,5.60
2022-07-26T10:35:48.518Z,4.43
2022-07-26T10:38:26.510Z,4.97
2022-07-26T10:41:01.416Z,3.17
2022-07-26T10:43:41.247Z,3.70
2022-07-26T10:46:22.610Z,4.15
2022-07-26T10:49:09.350Z,3.00
2022-07-26T10:51:41.505Z,1.80
2022-07-26T10:54:14.033Z,5.40
2022-07-26T10:56:43.957Z,8.23
2022-07-26T10:59:13.724Z,3.23
2022-07-26T11:01:45.416Z,4.10
2022-07-26T11:04:21.986Z,2.73
2022-07-26T11:06:52.753Z,4.27
2022-07-26T11:09:23.522Z,2.10
2022-07-26T11:11:53.282Z,4.00
2022-07-26T11:14:22.770Z,4.03
2022-07-26T11:16:52.964Z,2.27
2022-07-26T11:19:25.836Z,3.20
2022-07-26T11:22:00.689Z,3.53
2022-07-26T11:24:30.828Z,6.05
2022-07-26T11:27:04.953Z,4.17
2022-07-26T11:29:38.463Z,6.20
2022-07-26T11:32:19.044Z,3.77
2022-07-26T11:34:50.660Z,3.43
2022-07-26T11:37:20.459Z,3.30
2022-07-26T11:39:50.216Z,3.80
2022-07-26T11:42:21.542Z,5.20
2022-07-26T11:44:53.427Z,2.37
2022-07-26T11:47:26.389Z,5.13
2022-07-26T11:52:32.685Z,4.03
2022-07-26T11:55:03.048Z,5.43
2022-07-26T11:57:33.153Z,3.07
2022-07-26T12:00:03.272Z,3.67
2022-07-26T12:02:41.974Z,8.50
2022-07-26T12:05:18.448Z,3.80
2022-07-26T12:08:04.326Z,3.50
2022-07-26T12:10:34.381Z,4.90
2022-07-26T12:13:16.080Z,7.93
2022-07-26T12:15:51.921Z,5.23
2022-07-26T12:18:26.809Z,3.92
2022-07-26T12:21:07.851Z,4.37
2022-07-26T12:23:49.884Z,4.50
2022-07-26T12:26:30.771Z,5.58
2022-07-26T12:29:19.389Z,6.12
2022-07-26T12:32:12.559Z,4.13
2022-07-26T12:34:43.426Z,6.17
2022-07-26T12:37:18.299Z,3.60
2022-07-26T12:40:11.658Z,6.07
2022-07-26T12:42:44.146Z,4.03
2022-07-26T12:45:14.564Z,2.82
2022-07-26T12:47:47.469Z,4.33
2022-07-26T12:50:19.421Z,2.55
2022-07-26T12:52:49.735Z,4.10
2022-07-26T12:55:21.529Z,5.73
2022-07-26T12:57:51.287Z,4.97
2022-07-26T13:00:22.867Z,4.20
2022-07-26T13:02:56.132Z,5.10
2022-07-26T13:05:26.096Z,3.95
2022-07-26T13:07:55.985Z,5.17
2022-07-26T13:10:35.038Z,9.23
2022-07-26T13:12:58.902Z,6.70
2022-07-26T13:15:36.803Z,3.33
2022-07-26T13:18:00.221Z,6.27
2022-07-26T13:20:29.768Z,5.80
2022-07-26T13:22:59.271Z,4.55
2022-07-26T13:25:34.055Z,6.75
2022-07-26T13:28:00.528Z,4.63
2022-07-26T13:30:30.559Z,5.63
2022-07-26T13:33:00.362Z,4.03
2022-07-26T13:35:30.130Z,3.10
2022-07-26T13:37:59.892Z,3.10
2022-07-26T13:40:31.752Z,6.17
2022-07-26T13:43:01.065Z,4.80
2022-07-26T13:45:30.907Z,3.10
2022-07-26T13:48:00.732Z,4.47
2022-07-26T13:50:30.501Z,6.63
2022-07-26T13:53:00.341Z,6.33
2022-07-26T13:55:30.107Z,2.77
2022-07-26T13:57:59.866Z,4.57
2022-07-26T14:00:30.839Z,5.62
2022-07-26T14:03:01.036Z,5.75
2022-07-26T14:05:31.055Z,4.97
2022-07-26T14:08:00.904Z,6.07
2022-07-26T14:10:30.384Z,6.43
2022-07-26T14:13:00.931Z,4.93
2022-07-26T14:15:30.701Z,7.57
2022-07-26T14:18:00.236Z,9.40
2022-07-26T14:20:30.351Z,4.17
2022-07-26T14:23:01.018Z,6.57
2022-07-26T14:25:33.292Z,9.33
2022-07-26T14:28:02.316Z,6.33
2022-07-26T14:30:32.227Z,6.30
2022-07-26T14:33:02.064Z,10.57
2022-07-26T14:35:31.544Z,6.30
2022-07-26T14:38:01.384Z,5.33
2022-07-26T14:40:31.142Z,5.93
2022-07-26T14:43:01.504Z,5.63
2022-07-26T14:45:31.324Z,8.10
2022-07-26T14:48:01.098Z,4.43
2022-07-26T14:50:47.028Z,4.60
2022-07-26T14:53:02.227Z,7.43
2022-07-26T14:55:31.700Z,7.55
2022-07-26T14:58:01.759Z,7.72
2022-07-26T15:00:31.628Z,5.77
2022-07-26T15:03:02.157Z,6.72
2022-07-26T15:05:31.957Z,6.27
2022-07-26T15:08:05.931Z,5.43
2022-07-26T15:10:33.261Z,9.30
2022-07-26T15:13:06.227Z,4.97
2022-07-26T15:15:36.446Z,5.70
2022-07-26T15:18:08.080Z,6.75
2022-07-26T15:20:40.065Z,5.70
2022-07-26T15:23:11.746Z,7.17
2022-07-26T15:25:41.859Z,8.17
2022-07-26T15:28:11.757Z,9.63
2022-07-26T15:30:41.520Z,4.57
2022-07-26T15:33:11.371Z,6.77
2022-07-26T15:35:41.492Z,6.57
2022-07-26T15:38:12.298Z,6.52
2022-07-26T15:40:42.129Z,5.70
2022-07-26T15:43:11.984Z,8.30
2022-07-26T15:45:43.767Z,5.42
2022-07-26T15:48:18.324Z,4.30
2022-07-26T15:50:45.837Z,3.67
2022-07-26T15:53:16.606Z,8.43
2022-07-26T15:55:46.392Z,6.70
2022-07-26T15:58:16.149Z,4.90
2022-07-26T16:00:46.316Z,7.08
2022-07-26T16:03:16.323Z,4.77
2022-07-26T16:05:47.571Z,6.20
2022-07-26T16:08:17.112Z,4.23
2022-07-26T16:10:47.219Z,5.63
2022-07-26T16:13:16.982Z,4.07
2022-07-26T16:15:46.746Z,6.63
2022-07-26T16:18:16.233Z,5.20
2022-07-26T16:20:46.639Z,6.85
2022-07-26T16:23:16.444Z,6.73
2022-07-26T16:25:45.910Z,2.42
2022-07-26T16:28:15.673Z,3.42
2022-07-26T16:30:45.450Z,5.03
2022-07-26T16:33:15.282Z,8.80
2022-07-26T16:35:45.055Z,6.50
2022-07-26T16:38:14.542Z,5.75
2022-07-26T16:40:44.776Z,5.23
2022-07-26T16:43:14.342Z,5.10
2022-07-26T16:45:44.178Z,4.67
2022-07-26T16:48:13.961Z,4.78
2022-07-26T16:50:43.776Z,4.33
2022-07-26T16:53:13.547Z,5.93
2022-07-26T16:55:45.059Z,6.27
2022-07-26T16:58:14.822Z,6.00
2022-07-26T17:00:44.722Z,9.83
2022-07-26T17:03:16.200Z,6.13
2022-07-26T17:05:46.718Z,3.53
2022-07-26T17:08:16.829Z,4.37
2022-07-26T17:10:46.661Z,5.57
2022-07-26T17:13:16.721Z,7.20
2022-07-26T17:15:46.417Z,3.70
2022-07-26T17:18:16.071Z,4.37
2022-07-26T17:20:45.830Z,6.53
2022-07-26T17:23:15.353Z,7.45
2022-07-26T17:25:45.538Z,3.67
2022-07-26T17:28:15.158Z,7.17
2022-07-26T17:30:45.206Z,6.83
2022-07-26T17:33:15.125Z,5.37
2022-07-26T17:35:44.919Z,9.47
2022-07-26T17:38:14.756Z,3.33
2022-07-26T17:40:44.911Z,4.55
2022-07-26T17:43:16.688Z,6.37
2022-07-26T17:45:46.155Z,3.80
2022-07-26T17:48:15.633Z,5.42
2022-07-26T17:50:45.757Z,4.53
2022-07-26T17:53:15.519Z,2.07
2022-07-26T17:55:47.291Z,5.17
2022-07-26T17:58:16.958Z,3.40
2022-07-26T18:00:47.061Z,3.47
2022-07-26T18:03:16.820Z,3.93
2022-07-26T18:05:46.672Z,5.70
2022-07-26T18:08:16.641Z,5.53
2022-07-26T18:10:51.091Z,4.37
2022-07-26T18:13:18.319Z,4.00
2022-07-26T18:15:48.321Z,7.57
2022-07-26T18:18:19.260Z,3.40
2022-07-26T18:20:49.275Z,4.13
2022-07-26T18:23:19.114Z,4.57
2022-07-26T18:25:48.883Z,3.53
2022-07-26T18:28:18.354Z,3.70
2022-07-26T18:30:48.142Z,3.67
2022-07-26T18:33:17.973Z,6.70
2022-07-26T18:35:47.739Z,6.17
2022-07-26T18:38:17.324Z,5.57
2022-07-26T18:40:47.115Z,4.10
2022-07-26T18:43:16.879Z,2.30
2022-07-26T18:45:46.846Z,4.83
2022-07-26T18:48:16.465Z,3.33
2022-07-26T18:50:46.369Z,4.67
2022-07-26T18:53:16.217Z,3.17
2022-07-26T18:55:45.980Z,7.07
2022-07-26T18:58:15.874Z,4.87
2022-07-26T19:00:45.925Z,2.87
2022-07-26T19:03:16.546Z,2.23
2022-07-26T19:05:46.587Z,3.17
2022-07-26T19:08:16.380Z,5.47
2022-07-26T19:10:46.143Z,2.47
2022-07-26T19:13:15.908Z,5.57
2022-07-26T19:15:45.783Z,8.57
2022-07-26T19:18:16.269Z,4.30
2022-07-26T19:20:46.175Z,6.67
2022-07-26T19:23:15.654Z,4.85
2022-07-26T19:25:47.253Z,9.50
2022-07-26T19:28:17.150Z,2.37
2022-07-26T19:30:47.037Z,4.40
2022-07-26T19:33:16.858Z,4.70
2022-07-26T19:35:46.593Z,5.55
2022-07-26T19:38:16.407Z,4.87
2022-07-26T19:40:46.354Z,7.47
2022-07-26T19:43:16.414Z,7.17
2022-07-26T19:45:46.322Z,3.53
2022-07-26T19:48:16.726Z,5.00
2022-07-26T19:50:46.496Z,3.03
2022-07-26T19:53:16.396Z,6.53
2022-07-26T19:55:46.564Z,3.20
2022-07-26T19:58:16.344Z,6.10
2022-07-26T20:00:46.121Z,4.03
2022-07-26T20:03:16.192Z,5.90
2022-07-26T20:05:46.233Z,4.83
2022-07-26T20:08:15.699Z,4.40
2022-07-26T20:10:45.541Z,3.33
2022-07-26T20:13:15.375Z,2.20
2022-07-26T20:15:46.620Z,4.10
2022-07-26T20:18:18.389Z,5.17
2022-07-26T20:20:48.332Z,3.27
2022-07-26T20:23:18.085Z,6.73
2022-07-26T20:25:47.867Z,2.67
2022-07-26T20:28:17.879Z,3.53
2022-07-26T20:30:50.402Z,5.30
2022-07-26T20:33:20.177Z,6.20
2022-07-26T20:35:54.748Z,3.40
2022-07-26T20:38:21.399Z,4.67
2022-07-26T20:40:51.247Z,2.57
2022-07-26T20:43:22.300Z,4.10
2022-07-26T20:45:52.199Z,2.55
2022-07-26T20:48:21.949Z,4.03
2022-07-26T20:50:51.736Z,6.33
2022-07-26T20:53:21.563Z,2.83
2022-07-26T20:55:51.586Z,5.60
2022-07-26T20:58:22.116Z,5.28
2022-07-26T21:00:52.296Z,6.97
2022-07-26T21:03:22.474Z,4.83
2022-07-26T21:05:52.532Z,3.65
2022-07-26T21:08:22.586Z,3.73
2022-07-26T21:10:52.374Z,2.90
2022-07-26T21:13:22.296Z,1.57
2022-07-26T21:15:53.671Z,4.63
2022-07-26T21:18:23.485Z,1.40
2022-07-26T21:20:53.253Z,4.07
2022-07-26T21:23:23.291Z,3.47
2022-07-26T21:26:00.459Z,3.57
2022-07-26T21:28:26.062Z,3.87
2022-07-26T21:30:56.442Z,4.23
2022-07-26T21:33:26.273Z,1.37
2022-07-26T21:35:56.035Z,7.80
2022-07-26T21:38:27.189Z,3.90
2022-07-26T21:40:56.958Z,3.57
2022-07-26T21:43:27.185Z,2.72
2022-07-26T21:45:57.062Z,2.47
2022-07-26T21:48:26.920Z,4.67
2022-07-26T21:50:56.764Z,7.10
2022-07-26T21:53:26.524Z,3.50
2022-07-26T21:55:57.655Z,4.30
2022-07-26T21:58:28.149Z,4.63
2022-07-26T22:00:59.763Z,2.93
2022-07-26T22:03:30.573Z,7.17
2022-07-26T22:06:02.052Z,1.63
2022-07-26T22:08:33.807Z,2.97
2022-07-26T22:11:03.646Z,3.43
2022-07-26T22:13:33.675Z,2.90
2022-07-26T22:16:03.583Z,3.10
2022-07-26T22:18:33.635Z,5.30
2022-07-26T22:21:03.581Z,3.77
2022-07-26T22:23:33.552Z,5.87
2022-07-26T22:26:05.049Z,6.33
2022-07-26T22:28:35.039Z,5.97
2022-07-26T22:31:04.559Z,4.00
2022-07-26T22:33:34.342Z,3.30
2022-07-26T22:36:04.168Z,4.63
2022-07-26T22:38:33.961Z,4.87
2022-07-26T22:41:03.798Z,5.23
2022-07-26T22:43:33.588Z,4.10
2022-07-26T22:46:03.498Z,5.13
2022-07-26T22:48:37.868Z,6.10
2022-07-26T22:51:04.806Z,3.97
2022-07-26T22:53:34.653Z,4.83
2022-07-26T22:56:04.447Z,5.07
2022-07-26T22:58:34.533Z,5.90
2022-07-26T23:01:04.431Z,4.40
2022-07-26T23:03:34.522Z,9.13
2022-07-26T23:06:10.392Z,6.36
2022-07-26T23:08:47.960Z,4.70
2022-07-26T23:11:11.504Z,4.47
2022-07-26T23:13:41.301Z,6.47
2022-07-26T23:16:13.268Z,6.35
2022-07-26T23:18:43.035Z,4.67
2022-07-26T23:21:12.815Z,2.40
2022-07-26T23:23:42.570Z,6.13
2022-07-26T23:26:14.460Z,7.42
2022-07-26T23:28:44.361Z,2.17
2022-07-26T23:31:14.558Z,3.90
2022-07-26T23:33:53.120Z,5.97
2022-07-26T23:36:16.271Z,4.73
2022-07-26T23:38:46.071Z,4.77
2022-07-26T23:41:15.864Z,4.60
2022-07-26T23:43:45.656Z,2.20
2022-07-26T23:46:15.837Z,4.45
2022-07-26T23:48:46.210Z,3.20
2022-07-26T23:51:16.606Z,3.67
2022-07-26T23:53:47.142Z,4.78
2022-07-26T23:56:17.567Z,3.52
2022-07-26T23:58:47.689Z,4.67
